Time;durP1;ratioP1;P1;durP2;ratioP2;P2;SDS_P1;SDS_P2;PMS_P1;PMS_P2;Temp;Humidity;BMP_temperature;BMP_pressure;BME280_temperature;BME280_humidity;BME280_pressure;Samples;Min_cycle;Max_cycle;Signal;HPM_P1;HPM_P2
2022/12/30 00:00:53;;;;;;;8.88;2.60;;;24.20;73.90;;;;;;4027680;29;20033;-41
2022/12/30 00:03:16;;;;;;;7.47;2.58;;;24.20;73.70;;;;;;4038242;29;20428;-44
2022/12/30 00:05:38;;;;;;;6.60;2.55;;;24.20;73.40;;;;;;4026019;29;20088;-41
2022/12/30 00:08:01;;;;;;;7.43;2.53;;;24.20;73.30;;;;;;4039965;29;20052;-40
2022/12/30 00:10:23;;;;;;;6.57;2.60;;;24.20;72.80;;;;;;4040644;29;20063;-41
2022/12/30 00:35:01;;;;;;;8.13;2.70;;;24.30;73.40;;;;;;4042698;29;20104;-45
2022/12/30 00:37:23;;;;;;;17.63;3.50;;;24.30;73.40;;;;;;4041735;29;20096;-47
2022/12/30 00:39:46;;;;;;;18.60;3.25;;;24.40;73.20;;;;;;4044234;29;20107;-46
2022/12/30 00:44:49;;;;;;;9.80;3.47;;;24.40;72.80;;;;;;4039618;29;20135;-45
2022/12/30 00:47:13;;;;;;;5.00;2.22;;;24.40;72.40;;;;;;4042469;29;20040;-47
2022/12/30 00:57:37;;;;;;;5.63;2.38;;;24.30;71.90;;;;;;4038004;29;20381;-45
2022/12/30 00:59:59;;;;;;;6.53;2.72;;;24.30;71.70;;;;;;4042514;29;20036;-47
2022/12/30 01:02:22;;;;;;;7.38;3.03;;;24.20;71.50;;;;;;4037822;29;20044;-46
2022/12/30 01:04:44;;;;;;;5.20;2.50;;;24.20;71.40;;;;;;4019515;29;20605;-46
2022/12/30 01:07:07;;;;;;;6.50;2.67;;;24.20;71.40;;;;;;4034255;29;20040;-44
2022/12/30 01:09:29;;;;;;;6.05;2.22;;;24.20;71.40;;;;;;4039799;29;20181;-42
2022/12/30 01:12:10;;;;;;;7.72;2.72;;;24.20;71.30;;;;;;4039466;29;20076;-42
2022/12/30 01:14:32;;;;;;;5.20;2.40;;;24.20;71.20;;;;;;4038668;29;20037;-43
2022/12/30 01:16:55;;;;;;;7.22;3.08;;;24.20;71.20;;;;;;4044465;29;20338;-42
2022/12/30 01:19:17;;;;;;;5.68;2.40;;;24.20;71.20;;;;;;4037232;29;20536;-47
2022/12/30 01:21:40;;;;;;;5.78;2.53;;;24.20;71.40;;;;;;4038173;29;20117;-45
2022/12/30 01:24:02;;;;;;;7.38;2.47;;;24.20;71.50;;;;;;4035849;29;20131;-42
2022/12/30 01:26:25;;;;;;;6.07;2.83;;;24.20;71.50;;;;;;4037721;29;20238;-42
2022/12/30 01:28:47;;;;;;;6.72;2.60;;;24.10;71.30;;;;;;4039976;29;20037;-44
2022/12/30 01:31:11;;;;;;;10.27;3.00;;;24.20;71.10;;;;;;4036187;29;20506;-44
2022/12/30 01:33:34;;;;;;;5.88;2.40;;;24.20;71.30;;;;;;4033314;29;20055;-42
2022/12/30 01:35:57;;;;;;;6.28;2.45;;;24.20;70.80;;;;;;4035168;29;20113;-46
2022/12/30 01:38:19;;;;;;;8.85;2.80;;;24.20;70.40;;;;;;4035452;29;20053;-47
2022/12/30 01:40:42;;;;;;;6.72;2.38;;;24.20;70.10;;;;;;4040044;29;20041;-44
2022/12/30 01:43:08;;;;;;;8.85;2.50;;;24.20;70.10;;;;;;4040696;29;20044;-43
2022/12/30 01:45:31;;;;;;;4.82;2.33;;;24.20;70.20;;;;;;4039514;29;20048;-46
2022/12/30 01:48:00;;;;;;;5.22;2.35;;;24.20;70.20;;;;;;4043537;29;20086;-43
2022/12/30 01:50:37;;;;;;;4.70;2.70;;;24.20;70.10;;;;;;4037861;29;20486;-46
2022/12/30 01:53:01;;;;;;;4.63;2.13;;;24.20;70.20;;;;;;4036824;29;20559;-42
2022/12/30 01:55:39;;;;;;;6.40;2.60;;;24.20;70.20;;;;;;4045703;29;20155;-46
2022/12/30 01:58:05;;;;;;;5.95;2.45;;;24.20;70.00;;;;;;4044408;29;20301;-43
2022/12/30 02:00:27;;;;;;;5.63;2.17;;;24.20;70.10;;;;;;4044760;29;20504;-42
2022/12/30 02:02:50;;;;;;;7.05;2.42;;;24.30;70.00;;;;;;4030510;29;20048;-43
2022/12/30 02:05:13;;;;;;;4.85;2.13;;;24.30;70.20;;;;;;4043714;29;20041;-45
2022/12/30 02:07:49;;;;;;;6.80;2.35;;;24.30;70.30;;;;;;4041774;29;20055;-43
2022/12/30 02:10:13;;;;;;;7.63;2.85;;;24.30;70.50;;;;;;4039429;29;20045;-43
2022/12/30 02:12:35;;;;;;;7.95;2.25;;;24.30;70.70;;;;;;4041334;29;20053;-43
2022/12/30 02:14:58;;;;;;;5.68;2.53;;;24.30;70.40;;;;;;4029541;29;20355;-45
2022/12/30 02:17:55;;;;;;;8.27;2.53;;;24.20;70.40;;;;;;4040538;29;20131;-46
2022/12/30 02:20:35;;;;;;;9.88;3.00;;;24.20;70.40;;;;;;4029366;29;20049;-46
2022/12/30 02:23:22;;;;;;;8.43;2.67;;;24.20;70.30;;;;;;4041461;29;20047;-46
2022/12/30 02:26:08;;;;;;;8.48;2.92;;;24.30;70.60;;;;;;4038413;29;20451;-45
2022/12/30 02:29:05;;;;;;;7.07;2.53;;;24.30;70.60;;;;;;4036760;29;20458;-45
2022/12/30 02:31:54;;;;;;;4.47;2.33;;;24.30;70.10;;;;;;4042915;29;20123;-43
2022/12/30 02:34:45;;;;;;;7.25;2.47;;;24.30;70.20;;;;;;4041820;29;20049;-43
2022/12/30 02:37:15;;;;;;;7.45;2.47;;;24.30;70.40;;;;;;4040321;29;20115;-43
2022/12/30 02:39:56;;;;;;;8.02;1.95;;;24.40;70.00;;;;;;4039580;29;20513;-43
2022/12/30 02:45:32;;;;;;;5.38;2.40;;;24.40;69.40;;;;;;4043446;29;20591;-44
2022/12/30 02:48:13;;;;;;;6.82;2.30;;;24.40;69.40;;;;;;4042717;29;20147;-43
2022/12/30 02:53:26;;;;;;;4.18;2.30;;;24.50;68.50;;;;;;4040387;29;20500;-43
2022/12/30 02:55:50;;;;;;;4.53;1.98;;;24.50;67.90;;;;;;4041722;29;20055;-44
2022/12/30 02:58:13;;;;;;;6.80;2.00;;;24.50;67.70;;;;;;4027943;29;20055;-43
2022/12/30 03:03:59;;;;;;;7.40;2.75;;;24.50;67.30;;;;;;4031755;29;20048;-42
2022/12/30 03:06:30;;;;;;;5.88;2.60;;;24.50;66.40;;;;;;4043080;29;20115;-44
2022/12/30 03:19:29;;;;;;;5.15;2.03;;;24.50;66.10;;;;;;4231036;27;20449;-43
2022/12/30 03:21:54;;;;;;;6.88;2.38;;;24.60;67.00;;;;;;4244374;27;20061;-42
2022/12/30 03:27:05;;;;;;;4.75;1.80;;;24.60;67.10;;;;;;4234004;27;20023;-42
2022/12/30 03:29:30;;;;;;;4.38;2.00;;;24.70;66.70;;;;;;4246976;27;20051;-44
2022/12/30 03:31:54;;;;;;;6.63;2.00;;;24.70;66.60;;;;;;4249218;27;20111;-41
2022/12/30 03:34:17;;;;;;;5.57;2.20;;;24.70;66.80;;;;;;4220111;27;20036;-46
2022/12/30 03:36:43;;;;;;;3.17;1.75;;;24.70;66.50;;;;;;4235952;27;20111;-44
2022/12/30 03:39:13;;;;;;;6.10;2.38;;;24.80;66.60;;;;;;4235553;27;20551;-42
2022/12/30 03:41:36;;;;;;;6.88;2.08;;;24.80;66.90;;;;;;4249212;27;20091;-47
2022/12/30 03:43:58;;;;;;;5.45;2.35;;;24.80;67.00;;;;;;4244505;27;20037;-44
2022/12/30 03:46:26;;;;;;;6.68;2.33;;;24.80;67.00;;;;;;4228229;27;20485;-45
2022/12/30 03:48:48;;;;;;;3.72;2.00;;;24.80;66.50;;;;;;4244419;27;20043;-45
2022/12/30 03:51:10;;;;;;;7.65;2.20;;;24.80;66.50;;;;;;4228070;27;20035;-43
2022/12/30 03:53:33;;;;;;;6.95;2.40;;;24.80;66.20;;;;;;4243965;27;20035;-42
2022/12/30 03:55:55;;;;;;;5.15;2.05;;;24.80;66.30;;;;;;4234113;27;20045;-44
2022/12/30 03:58:18;;;;;;;4.53;1.88;;;24.90;65.70;;;;;;4247947;27;20041;-46
2022/12/30 04:00:40;;;;;;;7.60;2.30;;;24.90;65.70;;;;;;4249657;27;20026;-44
2022/12/30 04:03:03;;;;;;;5.53;2.00;;;24.90;65.40;;;;;;4251569;27;20038;-49
2022/12/30 04:05:25;;;;;;;7.18;1.90;;;25.00;65.40;;;;;;4231084;27;20023;-47
2022/12/30 04:07:47;;;;;;;6.40;2.00;;;24.90;65.40;;;;;;4216148;27;20032;-44
2022/12/30 04:10:10;;;;;;;5.22;1.80;;;25.00;65.10;;;;;;4234202;27;20031;-47
2022/12/30 04:12:32;;;;;;;5.47;1.95;;;25.00;64.70;;;;;;4237362;27;20044;-43
2022/12/30 04:14:55;;;;;;;6.13;1.80;;;25.00;64.80;;;;;;4229689;27;20049;-49
2022/12/30 04:17:17;;;;;;;5.47;1.85;;;25.00;65.20;;;;;;4203929;27;20468;-49
2022/12/30 04:19:39;;;;;;;7.22;2.45;;;25.00;65.30;;;;;;4225731;27;20050;-43
2022/12/30 04:22:02;;;;;;;5.88;2.40;;;25.10;65.80;;;;;;4216882;27;20119;-44
2022/12/30 04:24:24;;;;;;;7.05;2.30;;;25.00;65.00;;;;;;4212310;27;20158;-42
2022/12/30 04:26:47;;;;;;;5.05;1.98;;;25.10;65.10;;;;;;4217402;27;20056;-46
2022/12/30 04:29:10;;;;;;;6.60;2.72;;;25.10;65.80;;;;;;4223117;27;20039;-45
2022/12/30 04:31:32;;;;;;;4.43;2.10;;;25.10;65.80;;;;;;4227573;27;20063;-45
2022/12/30 04:33:54;;;;;;;6.47;2.38;;;25.10;66.00;;;;;;4232964;27;20039;-45
2022/12/30 04:36:17;;;;;;;4.78;2.58;;;25.10;66.10;;;;;;4233513;27;20543;-43
2022/12/30 04:38:40;;;;;;;5.80;2.28;;;25.10;66.20;;;;;;4226791;27;20460;-44
2022/12/30 04:41:02;;;;;;;4.50;1.92;;;25.10;66.10;;;;;;4226273;27;20081;-41
2022/12/30 04:43:25;;;;;;;5.55;2.47;;;25.10;66.10;;;;;;4226211;27;21301;-44
2022/12/30 04:45:47;;;;;;;6.80;2.40;;;25.10;65.60;;;;;;4221152;27;20038;-51
2022/12/30 04:48:12;;;;;;;5.57;2.00;;;25.10;65.90;;;;;;4225308;27;20062;-49
2022/12/30 04:50:35;;;;;;;4.32;1.90;;;25.10;65.30;;;;;;4222982;27;20031;-45
2022/12/30 04:52:58;;;;;;;4.50;2.20;;;25.20;65.40;;;;;;4220738;27;20066;-45
2022/12/30 04:55:20;;;;;;;6.93;1.77;;;25.20;65.40;;;;;;4223314;27;20031;-47
2022/12/30 04:57:43;;;;;;;5.18;1.85;;;25.20;65.30;;;;;;4228083;27;20042;-50
2022/12/30 05:00:06;;;;;;;7.30;2.10;;;25.20;65.30;;;;;;4225583;27;20485;-45
2022/12/30 05:02:28;;;;;;;6.18;2.10;;;25.20;65.40;;;;;;4224218;27;20068;-43
2022/12/30 05:04:51;;;;;;;6.40;2.30;;;25.20;65.50;;;;;;4217942;27;20112;-49
2022/12/30 05:07:13;;;;;;;4.90;2.58;;;25.20;65.60;;;;;;4224077;27;20031;-43
2022/12/30 05:09:35;;;;;;;6.25;2.08;;;25.20;65.80;;;;;;4224115;27;20039;-41
2022/12/30 05:11:58;;;;;;;6.68;2.60;;;25.20;65.60;;;;;;4223240;27;20051;-47
2022/12/30 05:14:20;;;;;;;5.75;1.80;;;25.10;65.70;;;;;;4218680;27;20035;-43
2022/12/30 05:16:43;;;;;;;5.13;2.15;;;25.10;65.80;;;;;;4225039;27;20086;-45
2022/12/30 05:19:05;;;;;;;3.97;2.00;;;25.20;65.90;;;;;;4218830;27;20047;-46
2022/12/30 05:21:27;;;;;;;5.15;2.00;;;25.20;65.70;;;;;;4208035;27;20032;-43
2022/12/30 05:26:30;;;;;;;5.50;2.17;;;25.20;65.30;;;;;;4216405;27;20044;-44
2022/12/30 05:28:53;;;;;;;5.97;1.90;;;25.20;65.20;;;;;;4214120;27;20146;-42
2022/12/30 05:31:17;;;;;;;5.90;2.50;;;25.20;65.10;;;;;;4210860;27;20036;-45
2022/12/30 05:33:40;;;;;;;4.10;2.10;;;25.20;65.00;;;;;;4218740;27;20110;-43
2022/12/30 05:36:03;;;;;;;6.43;2.10;;;25.20;65.10;;;;;;4216981;27;20356;-44
2022/12/30 05:38:25;;;;;;;4.82;1.77;;;25.20;65.20;;;;;;4216940;27;20115;-43
2022/12/30 05:40:48;;;;;;;4.28;1.80;;;25.20;65.40;;;;;;4211836;27;20040;-43
2022/12/30 05:43:10;;;;;;;5.03;2.10;;;25.20;65.40;;;;;;4221261;27;20073;-45
2022/12/30 05:45:32;;;;;;;4.18;2.00;;;25.20;65.20;;;;;;4215761;27;20038;-46
2022/12/30 05:47:55;;;;;;;5.47;2.08;;;25.20;64.80;;;;;;4210165;27;20453;-46
2022/12/30 05:50:17;;;;;;;7.82;2.53;;;25.20;64.80;;;;;;4212696;27;20557;-43
2022/12/30 05:52:40;;;;;;;5.75;2.15;;;25.10;65.70;;;;;;4212096;27;20043;-49
2022/12/30 05:55:02;;;;;;;5.38;2.00;;;25.10;65.30;;;;;;4209161;27;20036;-44
2022/12/30 05:57:25;;;;;;;3.78;1.88;;;25.10;65.30;;;;;;4214534;27;20035;-42
2022/12/30 05:59:47;;;;;;;5.20;2.40;;;25.10;65.20;;;;;;4205531;27;20436;-43
2022/12/30 06:02:09;;;;;;;4.68;2.03;;;25.10;65.30;;;;;;4212062;27;20390;-43
2022/12/30 06:04:32;;;;;;;5.15;2.20;;;25.10;65.40;;;;;;4211077;28;20512;-43
2022/12/30 06:06:54;;;;;;;4.65;2.17;;;25.20;65.60;;;;;;4210545;27;20031;-47
2022/12/30 06:09:17;;;;;;;6.93;2.72;;;25.20;65.70;;;;;;4204396;27;20048;-42
2022/12/30 06:11:39;;;;;;;5.45;2.25;;;25.20;65.70;;;;;;4217846;27;20036;-45
2022/12/30 06:14:02;;;;;;;4.50;2.25;;;25.20;65.70;;;;;;4214123;27;20044;-43
2022/12/30 06:16:24;;;;;;;7.13;1.98;;;25.20;65.80;;;;;;4203792;28;20028;-42
2022/12/30 06:18:47;;;;;;;5.13;2.40;;;25.20;65.80;;;;;;4217483;27;20420;-43
2022/12/30 06:21:09;;;;;;;8.85;2.28;;;25.20;65.70;;;;;;4211241;28;20042;-46
2022/12/30 06:23:32;;;;;;;3.95;2.05;;;25.20;65.80;;;;;;4215894;27;20039;-48
2022/12/30 06:25:56;;;;;;;5.03;2.30;;;25.30;65.80;;;;;;4214196;27;20382;-43
2022/12/30 06:28:18;;;;;;;4.25;2.50;;;25.30;65.80;;;;;;4226643;27;20086;-46
2022/12/30 06:30:41;;;;;;;6.63;2.33;;;25.30;65.80;;;;;;4198355;28;20043;-45
2022/12/30 06:33:03;;;;;;;6.43;2.35;;;25.30;66.50;;;;;;4203143;27;20061;-45
2022/12/30 06:35:26;;;;;;;4.45;2.10;;;25.20;65.80;;;;;;4214252;27;20057;-45
2022/12/30 06:37:48;;;;;;;6.20;2.28;;;25.20;65.90;;;;;;4216812;27;20039;-44
2022/12/30 06:40:11;;;;;;;5.38;2.05;;;25.20;66.00;;;;;;4228820;27;20050;-43
2022/12/30 06:42:34;;;;;;;7.80;2.63;;;25.20;66.10;;;;;;4228095;27;20135;-43
2022/12/30 06:44:56;;;;;;;7.22;2.10;;;25.30;66.20;;;;;;4228171;27;20051;-44
2022/12/30 06:47:19;;;;;;;4.82;2.00;;;25.20;66.10;;;;;;4217987;27;20036;-43
2022/12/30 06:49:41;;;;;;;5.70;2.42;;;25.20;66.10;;;;;;4216646;28;20027;-43
2022/12/30 06:52:03;;;;;;;5.65;2.17;;;25.20;66.00;;;;;;4217766;27;20226;-46
2022/12/30 06:54:26;;;;;;;6.45;2.08;;;25.20;66.10;;;;;;4220732;27;20039;-46
2022/12/30 06:56:48;;;;;;;5.95;2.60;;;25.20;66.20;;;;;;4231346;27;20652;-49
2022/12/30 06:59:11;;;;;;;4.28;1.90;;;25.20;66.10;;;;;;4218979;28;20040;-43
2022/12/30 07:01:33;;;;;;;6.05;2.25;;;25.20;66.10;;;;;;4222051;27;20123;-43
2022/12/30 07:03:55;;;;;;;5.05;2.60;;;25.20;66.30;;;;;;4215728;28;20059;-45
2022/12/30 07:06:18;;;;;;;7.63;2.08;;;25.20;66.40;;;;;;4208507;28;20657;-42
2022/12/30 07:08:40;;;;;;;5.32;2.38;;;25.20;66.40;;;;;;4229043;28;20046;-42
2022/12/30 07:11:03;;;;;;;5.30;2.35;;;25.20;66.40;;;;;;4217737;28;20038;-44
2022/12/30 07:13:26;;;;;;;9.88;2.63;;;25.20;66.40;;;;;;4229396;28;20484;-44
2022/12/30 07:15:48;;;;;;;3.83;1.70;;;25.20;66.40;;;;;;4205302;28;20028;-43
2022/12/30 07:18:10;;;;;;;4.05;2.33;;;25.20;66.40;;;;;;4222733;27;20060;-43
2022/12/30 07:20:33;;;;;;;4.30;1.92;;;25.20;66.40;;;;;;4223218;28;20028;-43
2022/12/30 07:22:55;;;;;;;5.00;2.58;;;25.20;66.50;;;;;;4219433;28;20093;-42
2022/12/30 07:25:18;;;;;;;7.78;2.50;;;25.10;66.50;;;;;;4216543;28;20114;-42
2022/12/30 07:27:40;;;;;;;7.80;2.72;;;25.10;66.60;;;;;;4225894;28;20100;-43
2022/12/30 07:30:04;;;;;;;7.82;2.42;;;25.10;66.60;;;;;;4222873;28;20437;-45
2022/12/30 07:32:26;;;;;;;6.90;2.45;;;25.10;66.00;;;;;;4211882;28;20436;-42
2022/12/30 07:34:49;;;;;;;5.28;2.22;;;25.10;65.90;;;;;;4217002;28;20061;-43
2022/12/30 07:37:11;;;;;;;6.43;2.30;;;25.10;65.90;;;;;;4207929;28;20474;-47
2022/12/30 07:39:34;;;;;;;4.38;2.45;;;25.10;66.00;;;;;;4209827;28;20043;-49
2022/12/30 07:41:56;;;;;;;5.97;2.35;;;25.10;66.00;;;;;;4207716;28;20058;-46
2022/12/30 07:44:19;;;;;;;4.50;2.22;;;25.10;66.10;;;;;;4221774;28;20489;-43
2022/12/30 07:46:41;;;;;;;5.38;2.55;;;25.10;65.90;;;;;;4217641;28;20527;-43
2022/12/30 07:49:04;;;;;;;9.02;2.45;;;25.10;65.90;;;;;;4227290;28;20573;-42
2022/12/30 07:51:26;;;;;;;6.13;2.53;;;25.10;66.10;;;;;;4210734;28;20573;-42
2022/12/30 07:53:49;;;;;;;7.45;2.97;;;25.10;66.20;;;;;;4215075;28;20075;-42
2022/12/30 07:56:13;;;;;;;6.53;2.40;;;25.10;66.10;;;;;;4213971;27;20408;-42
2022/12/30 07:58:36;;;;;;;7.43;2.60;;;25.10;66.30;;;;;;4218618;27;20119;-43
2022/12/30 08:01:02;;;;;;;7.63;2.28;;;25.10;66.30;;;;;;4211961;27;20035;-43
2022/12/30 08:03:25;;;;;;;7.25;2.38;;;25.10;66.50;;;;;;4221809;27;20040;-44
2022/12/30 08:05:47;;;;;;;5.90;2.50;;;25.10;66.60;;;;;;4224935;27;20057;-44
2022/12/30 08:08:09;;;;;;;7.43;2.60;;;25.00;66.50;;;;;;4220762;27;20875;-43
2022/12/30 08:10:32;;;;;;;6.10;2.60;;;25.00;66.50;;;;;;4220505;27;20035;-46
2022/12/30 08:12:54;;;;;;;8.65;2.50;;;25.00;66.80;;;;;;4225487;27;20433;-42
2022/12/30 08:15:17;;;;;;;6.55;2.47;;;25.00;66.70;;;;;;4228118;27;20038;-50
2022/12/30 08:17:39;;;;;;;6.35;2.20;;;25.00;66.70;;;;;;4218024;27;20497;-43
2022/12/30 08:20:02;;;;;;;8.05;2.60;;;25.00;66.70;;;;;;4205054;28;20032;-46
2022/12/30 08:22:24;;;;;;;7.00;2.20;;;25.00;66.50;;;;;;4210569;27;20040;-49
2022/12/30 08:24:47;;;;;;;9.02;2.97;;;25.00;66.50;;;;;;4218003;27;20477;-44
2022/12/30 08:27:09;;;;;;;7.18;2.20;;;25.10;66.60;;;;;;4213634;27;20039;-45
2022/12/30 08:29:32;;;;;;;7.38;2.60;;;25.00;66.50;;;;;;4225193;27;20092;-48
2022/12/30 08:31:58;;;;;;;6.78;2.53;;;25.00;66.50;;;;;;4220954;27;20039;-45
2022/12/30 08:34:21;;;;;;;5.55;2.10;;;25.00;66.70;;;;;;4187736;27;20498;-42
2022/12/30 08:36:43;;;;;;;5.25;2.13;;;25.00;66.70;;;;;;4218881;27;20049;-51
2022/12/30 08:39:06;;;;;;;7.30;2.63;;;25.00;66.80;;;;;;4211825;27;20039;-43
2022/12/30 08:41:34;;;;;;;7.85;2.17;;;25.00;66.90;;;;;;4226186;27;20123;-44
2022/12/30 08:43:58;;;;;;;8.80;2.58;;;25.00;67.20;;;;;;4225170;27;20043;-47
2022/12/30 08:46:21;;;;;;;7.30;2.50;;;25.00;67.20;;;;;;4210959;27;20736;-45
2022/12/30 08:48:43;;;;;;;6.60;2.40;;;25.00;67.30;;;;;;4217919;27;20055;-42
2022/12/30 08:51:07;;;;;;;6.38;2.42;;;25.00;67.40;;;;;;4213308;27;20512;-42
2022/12/30 08:53:29;;;;;;;8.02;2.35;;;25.00;67.40;;;;;;4213742;27;20458;-44
2022/12/30 08:56:07;;;;;;;7.80;2.25;;;25.00;67.40;;;;;;4226842;27;20716;-41
2022/12/30 08:58:31;;;;;;;5.80;2.38;;;25.00;67.30;;;;;;4217891;28;20507;-47
2022/12/30 09:00:53;;;;;;;6.38;2.17;;;25.00;67.50;;;;;;4228408;27;20542;-47
2022/12/30 09:03:16;;;;;;;8.82;2.47;;;25.00;67.50;;;;;;4215289;27;20097;-42
2022/12/30 09:05:38;;;;;;;7.18;2.30;;;25.00;67.60;;;;;;4213383;27;20030;-45
2022/12/30 09:08:01;;;;;;;8.00;2.30;;;24.90;67.70;;;;;;4221511;27;20043;-44
2022/12/30 09:10:23;;;;;;;8.13;2.47;;;24.90;67.70;;;;;;4226297;27;20048;-45
2022/12/30 09:12:46;;;;;;;10.25;2.50;;;24.90;67.80;;;;;;4230180;27;20565;-43
2022/12/30 09:15:09;;;;;;;11.07;2.70;;;24.90;68.00;;;;;;4228092;27;20045;-49
2022/12/30 09:17:31;;;;;;;4.03;1.97;;;24.90;68.10;;;;;;4220992;27;20035;-47
2022/12/30 09:19:53;;;;;;;6.50;2.60;;;24.90;68.10;;;;;;4225837;27;20043;-44
2022/12/30 09:22:16;;;;;;;7.70;2.72;;;24.90;68.10;;;;;;4220364;28;20481;-43
2022/12/30 09:24:38;;;;;;;8.55;2.20;;;24.90;68.00;;;;;;4224849;27;20075;-43
2022/12/30 09:27:01;;;;;;;4.63;2.00;;;24.90;68.00;;;;;;4221705;27;20047;-43
2022/12/30 09:29:23;;;;;;;4.80;2.05;;;24.90;68.50;;;;;;4226865;27;20137;-45
2022/12/30 09:31:46;;;;;;;7.80;2.20;;;24.90;67.80;;;;;;4220686;27;20412;-45
2022/12/30 09:34:08;;;;;;;8.77;2.78;;;24.90;67.80;;;;;;4219596;28;20039;-42
2022/12/30 09:36:30;;;;;;;6.22;2.25;;;24.90;67.80;;;;;;4217664;28;20036;-46
2022/12/30 09:38:53;;;;;;;7.45;2.20;;;24.90;67.80;;;;;;4213097;28;20040;-41
2022/12/30 09:44:28;;;;;;;4.40;2.45;;;24.90;67.80;;;;;;4217001;27;20048;-45
2022/12/30 09:47:05;;;;;;;4.97;2.15;;;24.90;67.70;;;;;;4211894;27;20553;-44
2022/12/30 09:49:39;;;;;;;6.15;2.45;;;24.90;67.80;;;;;;4215216;27;20054;-42
2022/12/30 09:52:11;;;;;;;6.32;2.25;;;24.90;67.70;;;;;;4211655;27;20035;-44
2022/12/30 09:54:38;;;;;;;8.13;2.45;;;24.90;67.70;;;;;;4207960;27;20044;-42
2022/12/30 09:59:50;;;;;;;4.60;1.95;;;24.90;67.70;;;;;;4217048;27;20036;-46
2022/12/30 10:02:22;;;;;;;5.88;2.28;;;24.90;67.80;;;;;;4216567;27;20470;-45
2022/12/30 10:04:45;;;;;;;5.47;2.40;;;25.00;68.00;;;;;;4213964;27;20024;-42
2022/12/30 10:07:37;;;;;;;7.28;2.47;;;25.00;68.00;;;;;;4212663;27;20032;-47
2022/12/30 10:10:15;;;;;;;5.15;2.38;;;25.00;68.10;;;;;;4202554;27;20522;-42
2022/12/30 10:13:09;;;;;;;5.90;2.15;;;25.00;68.10;;;;;;4195870;28;20050;-45
2022/12/30 10:15:43;;;;;;;7.50;2.33;;;25.00;68.20;;;;;;4209749;27;20044;-42
2022/12/30 10:18:29;;;;;;;7.30;2.00;;;25.00;68.10;;;;;;4209061;28;20079;-43
2022/12/30 10:20:57;;;;;;;7.90;2.70;;;25.00;68.10;;;;;;4202198;28;20038;-45
2022/12/30 10:23:50;;;;;;;6.22;2.40;;;25.10;68.10;;;;;;4212733;27;20745;-42
2022/12/30 10:26:20;;;;;;;6.07;2.20;;;25.10;68.00;;;;;;4210345;27;20212;-45
2022/12/30 10:28:48;;;;;;;6.18;2.40;;;25.10;67.90;;;;;;4213239;27;20040;-46
2022/12/30 10:31:21;;;;;;;6.75;2.50;;;25.10;67.90;;;;;;4201902;28;20028;-42
2022/12/30 10:33:43;;;;;;;4.75;2.10;;;25.10;67.90;;;;;;4215677;28;20076;-46
2022/12/30 10:36:22;;;;;;;5.83;2.20;;;25.10;67.80;;;;;;4217892;27;20039;-44
2022/12/30 10:38:45;;;;;;;5.25;2.20;;;25.10;67.90;;;;;;4210263;28;20138;-44
2022/12/30 10:41:36;;;;;;;5.50;2.10;;;25.10;67.90;;;;;;4216924;27;20032;-42
2022/12/30 10:44:17;;;;;;;5.90;2.17;;;25.10;67.90;;;;;;4214734;27;20043;-42
2022/12/30 10:46:54;;;;;;;8.45;2.67;;;25.10;67.90;;;;;;4216846;27;20046;-50
2022/12/30 10:49:43;;;;;;;7.38;2.30;;;25.10;67.70;;;;;;4213748;27;20051;-43
2022/12/30 10:52:08;;;;;;;6.85;2.25;;;25.10;67.80;;;;;;4212327;27;20035;-42
2022/12/30 10:54:30;;;;;;;5.78;2.25;;;25.10;67.80;;;;;;4211355;28;20417;-42
2022/12/30 10:56:53;;;;;;;6.25;2.20;;;25.10;67.80;;;;;;4201159;28;20021;-46
2022/12/30 10:59:19;;;;;;;5.18;2.00;;;25.10;67.80;;;;;;4213926;27;20047;-43
2022/12/30 11:01:45;;;;;;;6.45;2.45;;;25.10;67.90;;;;;;4216403;28;20062;-45
2022/12/30 11:04:27;;;;;;;6.22;2.20;;;25.10;67.90;;;;;;4209090;28;20112;-49
2022/12/30 11:07:00;;;;;;;5.13;2.20;;;25.10;68.00;;;;;;4214397;28;20090;-47
2022/12/30 11:09:25;;;;;;;7.28;2.30;;;25.10;68.00;;;;;;4212816;28;20109;-46
2022/12/30 11:14:42;;;;;;;6.75;2.58;;;25.10;68.00;;;;;;4205703;28;20407;-43
2022/12/30 11:17:20;;;;;;;4.97;2.10;;;25.10;67.80;;;;;;4219632;28;20636;-45
2022/12/30 11:19:51;;;;;;;6.30;2.65;;;25.10;67.90;;;;;;4200730;28;20039;-44
2022/12/30 11:22:13;;;;;;;4.43;1.85;;;25.00;67.90;;;;;;4189514;28;20414;-48
2022/12/30 11:24:37;;;;;;;6.22;2.47;;;25.00;67.80;;;;;;4221399;28;20043;-48
2022/12/30 11:27:00;;;;;;;5.18;2.20;;;25.00;68.00;;;;;;4208059;28;20069;-47
2022/12/30 11:29:23;;;;;;;5.63;2.25;;;25.00;68.10;;;;;;4213055;27;20053;-49
2022/12/30 11:31:50;;;;;;;4.93;1.90;;;25.00;67.90;;;;;;4217621;27;20031;-44
2022/12/30 11:34:31;;;;;;;7.20;2.33;;;25.00;67.90;;;;;;4222687;27;20046;-44
2022/12/30 11:36:54;;;;;;;5.13;2.13;;;25.00;67.80;;;;;;4212549;27;20641;-46
2022/12/30 11:39:22;;;;;;;4.97;2.10;;;25.00;67.70;;;;;;4223169;27;20047;-43
2022/12/30 11:41:59;;;;;;;5.03;2.33;;;25.00;67.70;;;;;;4210795;27;20043;-46
2022/12/30 11:44:24;;;;;;;4.18;2.10;;;25.00;67.70;;;;;;4215396;28;20039;-44
2022/12/30 11:46:51;;;;;;;4.88;2.13;;;24.90;67.70;;;;;;4219713;27;20383;-45
2022/12/30 11:49:38;;;;;;;5.55;1.95;;;24.90;67.70;;;;;;4222151;27;20086;-45
2022/12/30 11:52:25;;;;;;;4.88;1.75;;;24.90;67.80;;;;;;4222662;27;20039;-47
2022/12/30 11:54:56;;;;;;;5.40;2.05;;;24.90;67.80;;;;;;4225371;27;20046;-44
2022/12/30 11:57:42;;;;;;;5.40;2.78;;;24.90;67.80;;;;;;4218597;27;20393;-45
2022/12/30 12:00:27;;;;;;;4.50;1.90;;;25.00;67.90;;;;;;4216842;27;20481;-49
2022/12/30 12:02:58;;;;;;;4.88;2.03;;;25.00;67.90;;;;;;4232883;27;20450;-45
2022/12/30 12:05:39;;;;;;;4.05;2.08;;;25.00;68.00;;;;;;4230648;27;20044;-42
2022/12/30 12:08:38;;;;;;;8.13;2.20;;;25.00;68.00;;;;;;4221120;27;20048;-43
2022/12/30 12:11:13;;;;;;;4.88;1.98;;;25.00;68.10;;;;;;4186498;27;20039;-41
2022/12/30 12:13:44;;;;;;;5.13;2.22;;;25.00;68.20;;;;;;4230185;27;20130;-41
2022/12/30 12:16:11;;;;;;;3.95;1.88;;;25.00;68.10;;;;;;4207388;28;20040;-43
2022/12/30 12:18:37;;;;;;;6.97;1.92;;;25.00;68.20;;;;;;4206639;28;20093;-48
2022/12/30 12:21:18;;;;;;;10.57;2.47;;;24.90;68.50;;;;;;4213805;27;20505;-47
2022/12/30 12:23:43;;;;;;;5.15;2.08;;;24.90;68.70;;;;;;4206018;27;20582;-46
2022/12/30 12:26:17;;;;;;;8.90;2.40;;;24.90;68.90;;;;;;4212478;27;20086;-44
2022/12/30 12:28:42;;;;;;;6.60;1.40;;;24.90;69.10;;;;;;4212576;27;20047;-48
2022/12/30 12:31:11;;;;;;;4.80;1.50;;;24.90;69.00;;;;;;4216722;27;20092;-42
2022/12/30 12:33:39;;;;;;;4.18;1.50;;;24.90;69.00;;;;;;4210238;27;20096;-45
2022/12/30 12:36:12;;;;;;;6.07;2.20;;;24.90;69.10;;;;;;4202161;28;20032;-44
2022/12/30 12:38:54;;;;;;;5.80;1.50;;;24.90;69.10;;;;;;4214695;28;20067;-45
2022/12/30 12:41:38;;;;;;;5.45;1.52;;;25.00;69.10;;;;;;4215975;27;20551;-48
2022/12/30 12:44:27;;;;;;;3.53;1.53;;;25.00;69.10;;;;;;4212357;27;20035;-45
2022/12/30 12:47:00;;;;;;;4.30;1.40;;;25.00;69.10;;;;;;4215812;27;20039;-48
2022/12/30 12:49:44;;;;;;;5.72;1.80;;;25.00;69.20;;;;;;4218056;27;20082;-48
2022/12/30 12:52:30;;;;;;;3.50;1.50;;;25.00;69.10;;;;;;4200989;28;20036;-43
2022/12/30 12:55:19;;;;;;;4.32;1.42;;;25.00;69.10;;;;;;4212487;28;20039;-41
2022/12/30 12:57:52;;;;;;;3.17;1.42;;;25.00;69.10;;;;;;4218841;27;20029;-42
2022/12/30 13:00:20;;;;;;;3.47;1.80;;;25.10;69.00;;;;;;4213204;27;20463;-48
2022/12/30 13:03:21;;;;;;;3.67;1.50;;;25.00;69.00;;;;;;4213295;27;20079;-45
2022/12/30 13:05:54;;;;;;;4.78;1.30;;;25.00;69.20;;;;;;4187036;27;20043;-46
2022/12/30 13:08:22;;;;;;;6.07;2.05;;;25.10;69.10;;;;;;4208431;27;20051;-43
2022/12/30 13:10:58;;;;;;;6.35;1.70;;;25.10;69.00;;;;;;4211510;27;20038;-41
2022/12/30 13:13:39;;;;;;;3.45;1.20;;;25.10;68.90;;;;;;4201546;28;20569;-48
2022/12/30 13:16:13;;;;;;;4.95;1.70;;;25.10;69.00;;;;;;4216571;27;20035;-44
2022/12/30 13:18:40;;;;;;;8.93;1.70;;;25.10;69.20;;;;;;4215632;27;20483;-50
2022/12/30 13:21:06;;;;;;;5.93;1.60;;;25.10;69.00;;;;;;4214042;27;20036;-48
2022/12/30 13:23:33;;;;;;;5.10;2.45;;;25.10;68.70;;;;;;4206660;27;20071;-50
2022/12/30 13:26:08;;;;;;;6.13;1.70;;;25.10;68.40;;;;;;4218544;27;20035;-49
2022/12/30 13:28:34;;;;;;;4.40;1.77;;;25.10;68.60;;;;;;4218298;27;20047;-47
2022/12/30 13:31:12;;;;;;;4.30;1.80;;;25.10;69.10;;;;;;4198477;28;20059;-47
2022/12/30 13:34:00;;;;;;;7.53;2.40;;;25.10;69.10;;;;;;4212356;27;20573;-48
2022/12/30 13:36:33;;;;;;;3.00;1.60;;;25.10;69.20;;;;;;4214561;27;20043;-51
2022/12/30 13:39:32;;;;;;;4.03;1.93;;;25.10;69.20;;;;;;4221316;27;20093;-44
2022/12/30 13:42:19;;;;;;;3.67;1.70;;;25.10;69.00;;;;;;4206730;28;20047;-45
2022/12/30 13:44:44;;;;;;;7.75;2.15;;;25.10;68.80;;;;;;4203735;27;20492;-47
2022/12/30 13:47:27;;;;;;;5.00;1.98;;;25.10;68.80;;;;;;4216623;27;20477;-46
2022/12/30 13:49:50;;;;;;;4.45;2.00;;;25.10;68.80;;;;;;4221641;27;20043;-47
2022/12/30 13:52:26;;;;;;;6.35;2.20;;;25.10;68.90;;;;;;4219014;27;20165;-52